createdAt,value
2023-04-09T00:02:10.718Z,17.38
2023-04-09T00:04:37.279Z,18.10
2023-04-09T00:07:03.810Z,17.77
2023-04-09T00:09:30.590Z,17.75
2023-04-09T00:11:58.321Z,16.58
2023-04-09T00:14:25.263Z,16.83
2023-04-09T00:16:51.823Z,17.90
2023-04-09T00:19:18.676Z,18.38
2023-04-09T00:21:45.311Z,18.63
2023-04-09T00:24:11.869Z,19.65
2023-04-09T00:26:38.589Z,19.48
2023-04-09T00:29:05.491Z,19.23
2023-04-09T00:31:33.011Z,18.63
2023-04-09T00:33:59.547Z,19.05
2023-04-09T00:36:27.118Z,19.85
2023-04-09T00:38:54.311Z,19.88
2023-04-09T00:41:21.069Z,19.10
2023-04-09T00:43:47.623Z,18.25
2023-04-09T00:46:14.672Z,18.85
2023-04-09T00:48:41.905Z,17.48
2023-04-09T00:51:08.883Z,18.70
2023-04-09T00:53:35.619Z,17.60
2023-04-09T00:56:03.076Z,16.92
2023-04-09T00:58:29.675Z,17.67
2023-04-09T01:00:56.469Z,17.17
2023-04-09T01:03:23.638Z,16.63
2023-04-09T01:06:08.145Z,18.13
2023-04-09T01:08:49.959Z,17.80
2023-04-09T01:11:38.792Z,18.85
2023-04-09T01:14:32.768Z,16.23
2023-04-09T01:17:10.655Z,18.90
2023-04-09T01:19:46.249Z,17.48
2023-04-09T01:22:36.482Z,16.73
2023-04-09T01:25:26.927Z,15.07
2023-04-09T01:28:15.669Z,16.10
2023-04-09T01:30:47.385Z,16.15
2023-04-09T01:33:15.549Z,15.23
2023-04-09T01:35:46.817Z,20.10
2023-04-09T01:38:14.927Z,19.38
2023-04-09T01:40:42.733Z,18.42
2023-04-09T01:43:10.651Z,19.90
2023-04-09T01:45:37.505Z,20.70
2023-04-09T01:48:05.643Z,18.83
2023-04-09T01:50:33.097Z,18.98
2023-04-09T01:53:01.601Z,17.88
2023-04-09T01:55:28.175Z,18.38
2023-04-09T01:57:54.654Z,18.02
2023-04-09T02:00:21.447Z,20.08
2023-04-09T02:03:02.206Z,18.17
2023-04-09T02:05:36.309Z,19.35
2023-04-09T02:08:06.815Z,16.58
2023-04-09T02:10:36.243Z,18.15
2023-04-09T02:13:06.289Z,17.98
2023-04-09T02:15:36.504Z,18.60
2023-04-09T02:18:03.164Z,18.88
2023-04-09T02:20:29.736Z,17.02
2023-04-09T02:22:56.263Z,18.55
2023-04-09T02:25:23.324Z,18.75
2023-04-09T02:27:49.953Z,17.88
2023-04-09T02:30:16.575Z,18.38
2023-04-09T02:32:43.157Z,16.67
2023-04-09T02:35:10.354Z,16.50
2023-04-09T02:37:36.926Z,18.52
2023-04-09T02:40:04.523Z,17.65
2023-04-09T02:42:31.051Z,18.63
2023-04-09T02:44:57.560Z,18.33
2023-04-09T02:47:26.762Z,17.83
2023-04-09T02:49:53.345Z,18.02
2023-04-09T02:52:22.755Z,19.45
2023-04-09T02:54:49.304Z,18.65
2023-04-09T02:57:16.075Z,20.58
2023-04-09T02:59:42.755Z,21.95
2023-04-09T03:02:09.320Z,23.05
2023-04-09T03:04:35.989Z,23.08
2023-04-09T03:07:02.584Z,21.42
2023-04-09T03:09:30.462Z,20.17
2023-04-09T03:11:57.440Z,22.88
2023-04-09T03:14:24.776Z,22.08
2023-04-09T03:16:51.287Z,20.85
2023-04-09T03:19:17.954Z,18.67
2023-04-09T03:21:44.617Z,18.90
2023-04-09T03:24:11.132Z,17.10
2023-04-09T03:26:38.056Z,16.48
2023-04-09T03:29:05.939Z,15.75
2023-04-09T03:31:33.143Z,16.25
2023-04-09T03:33:59.816Z,14.93
2023-04-09T03:36:27.961Z,17.20
2023-04-09T03:38:54.678Z,18.20
2023-04-09T03:41:21.542Z,18.23
2023-04-09T03:43:47.998Z,17.15
2023-04-09T03:46:18.146Z,16.65
2023-04-09T03:48:45.804Z,15.05
2023-04-09T03:51:13.669Z,15.68
2023-04-09T03:53:43.531Z,16.60
2023-04-09T03:56:10.641Z,17.58
2023-04-09T03:58:37.730Z,14.40
2023-04-09T04:01:04.256Z,15.13
2023-04-09T04:03:30.928Z,14.27
2023-04-09T04:06:04.039Z,13.05
2023-04-09T04:08:30.716Z,16.25
2023-04-09T04:11:03.495Z,14.50
2023-04-09T04:13:30.188Z,15.15
2023-04-09T04:15:57.002Z,17.83
2023-04-09T04:18:23.648Z,16.52
2023-04-09T04:20:50.717Z,15.02
2023-04-09T04:23:17.492Z,15.70
2023-04-09T04:25:44.175Z,16.10
2023-04-09T04:28:10.694Z,14.27
2023-04-09T04:30:37.223Z,15.15
2023-04-09T04:33:03.810Z,16.25
2023-04-09T04:35:30.443Z,17.83
2023-04-09T04:37:57.089Z,18.08
2023-04-09T04:40:23.845Z,18.42
2023-04-09T04:42:50.441Z,18.30
2023-04-09T04:45:17.126Z,21.23
2023-04-09T04:47:43.637Z,21.77
2023-04-09T04:50:10.609Z,22.42
2023-04-09T04:52:38.861Z,20.02
2023-04-09T04:55:05.837Z,19.00
2023-04-09T04:57:32.524Z,20.63
2023-04-09T04:59:59.043Z,20.15
2023-04-09T05:02:25.952Z,18.65
2023-04-09T05:04:52.651Z,20.08
2023-04-09T05:07:19.291Z,19.75
2023-04-09T05:09:45.820Z,19.45
2023-04-09T05:12:12.533Z,17.83
2023-04-09T05:14:39.048Z,17.17
2023-04-09T05:17:05.592Z,16.98
2023-04-09T05:19:32.341Z,18.75
2023-04-09T05:21:58.873Z,18.65
2023-04-09T05:24:25.473Z,18.00
2023-04-09T05:26:51.954Z,17.05
2023-04-09T05:29:18.599Z,19.27
2023-04-09T05:31:45.334Z,19.08
2023-04-09T05:34:11.881Z,18.40
2023-04-09T05:36:38.561Z,19.30
2023-04-09T05:39:05.135Z,18.98
2023-04-09T05:41:32.758Z,19.42
2023-04-09T05:44:00.806Z,18.42
2023-04-09T05:46:28.904Z,20.00
2023-04-09T05:48:55.737Z,21.10
2023-04-09T05:51:22.235Z,21.55
2023-04-09T05:53:48.724Z,20.52
2023-04-09T05:56:16.188Z,21.30
2023-04-09T05:58:42.936Z,19.25
2023-04-09T06:01:10.388Z,19.98
2023-04-09T06:03:37.137Z,19.27
2023-04-09T06:06:03.815Z,20.63
2023-04-09T06:08:30.335Z,20.20
2023-04-09T06:10:56.843Z,19.73
2023-04-09T06:13:23.374Z,20.02
2023-04-09T06:15:50.432Z,19.75
2023-04-09T06:18:17.315Z,19.33
2023-04-09T06:20:43.967Z,18.90
2023-04-09T06:23:11.636Z,20.20
2023-04-09T06:25:38.216Z,19.98
2023-04-09T06:28:05.006Z,20.52
2023-04-09T06:30:32.035Z,20.55
2023-04-09T06:32:58.672Z,22.88
2023-04-09T06:35:25.211Z,19.80
2023-04-09T06:37:51.783Z,18.83
2023-04-09T06:40:20.700Z,19.65
2023-04-09T06:42:48.800Z,18.45
2023-04-09T06:45:15.813Z,19.55
2023-04-09T06:47:42.538Z,20.05
2023-04-09T06:50:09.149Z,20.80
2023-04-09T06:52:36.124Z,25.10
2023-04-09T06:55:02.763Z,23.13
2023-04-09T06:57:29.444Z,22.35
2023-04-09T06:59:56.531Z,22.40
2023-04-09T07:02:23.379Z,27.48
2023-04-09T07:04:50.097Z,26.83
2023-04-09T07:07:16.810Z,27.02
2023-04-09T07:09:43.336Z,27.58
2023-04-09T07:12:09.876Z,27.10
2023-04-09T07:14:36.598Z,27.70
2023-04-09T07:17:03.191Z,26.02
2023-04-09T07:19:29.865Z,24.67
2023-04-09T07:21:56.435Z,21.05
2023-04-09T07:24:23.113Z,21.83
2023-04-09T07:26:52.114Z,20.55
2023-04-09T07:29:20.735Z,20.88
2023-04-09T07:31:47.736Z,17.42
2023-04-09T07:34:14.297Z,21.67
2023-04-09T07:36:41.444Z,20.50
2023-04-09T07:39:08.149Z,19.40
2023-04-09T07:41:34.685Z,18.90
2023-04-09T07:44:03.407Z,20.40
2023-04-09T07:48:56.620Z,21.60
2023-04-09T07:51:23.335Z,20.70
2023-04-09T07:53:49.900Z,19.38
2023-04-09T07:56:16.373Z,20.88
2023-04-09T07:58:43.119Z,18.55
2023-04-09T08:01:10.006Z,21.37
2023-04-09T08:03:36.828Z,18.38
2023-04-09T08:06:03.835Z,18.42
2023-04-09T08:08:31.152Z,19.13
2023-04-09T08:10:57.827Z,17.95
2023-04-09T08:13:25.550Z,17.90
2023-04-09T08:15:52.430Z,18.65
2023-04-09T08:18:18.988Z,18.05
2023-04-09T08:20:45.920Z,18.42
2023-04-09T08:23:12.672Z,17.00
2023-04-09T08:25:39.183Z,17.47
2023-04-09T08:28:06.509Z,17.42
2023-04-09T08:30:34.299Z,18.73
2023-04-09T08:33:02.166Z,17.80
2023-04-09T08:35:30.936Z,16.83
2023-04-09T08:37:58.864Z,19.03
2023-04-09T08:40:25.412Z,17.90
2023-04-09T08:42:56.920Z,16.38
2023-04-09T08:45:24.235Z,16.40
2023-04-09T08:47:52.045Z,16.55
2023-04-09T08:50:19.768Z,18.13
2023-04-09T08:52:48.238Z,17.17
2023-04-09T08:55:14.818Z,17.92
2023-04-09T08:57:42.056Z,15.70
2023-04-09T09:00:09.509Z,18.52
2023-04-09T09:02:36.411Z,18.83
2023-04-09T09:05:03.086Z,18.70
2023-04-09T09:07:29.782Z,19.25
2023-04-09T09:10:03.277Z,18.30
2023-04-09T09:12:41.576Z,16.92
2023-04-09T09:15:28.810Z,17.93
2023-04-09T09:17:57.793Z,18.95
2023-04-09T09:20:25.198Z,19.73
2023-04-09T09:22:55.491Z,18.60
2023-04-09T09:25:26.234Z,17.83
2023-04-09T09:27:54.117Z,17.97
2023-04-09T09:30:26.072Z,19.75
2023-04-09T09:33:04.610Z,18.23
2023-04-09T09:35:31.200Z,20.10
2023-04-09T09:38:04.569Z,21.55
2023-04-09T09:40:31.129Z,18.90
2023-04-09T09:42:58.193Z,21.17
2023-04-09T09:45:26.172Z,18.38
2023-04-09T09:47:54.324Z,17.98
2023-04-09T09:50:25.219Z,20.45
2023-04-09T09:52:58.910Z,19.47
2023-04-09T09:55:29.337Z,20.00
2023-04-09T09:57:58.668Z,18.90
2023-04-09T10:00:27.364Z,21.25
2023-04-09T10:03:12.174Z,19.35
2023-04-09T10:05:41.209Z,20.80
2023-04-09T10:08:08.223Z,21.42
2023-04-09T10:10:36.584Z,19.75
2023-04-09T10:13:05.500Z,19.50
2023-04-09T10:15:33.029Z,20.73
2023-04-09T10:17:59.789Z,21.80
2023-04-09T10:20:31.125Z,21.92
2023-04-09T10:23:03.221Z,22.67
2023-04-09T10:25:29.786Z,21.25
2023-04-09T10:28:02.722Z,22.35
2023-04-09T10:30:36.747Z,21.17
2023-04-09T10:33:17.152Z,19.73
2023-04-09T10:35:47.206Z,20.08
2023-04-09T10:38:16.894Z,22.45
2023-04-09T10:40:51.021Z,20.80
2023-04-09T10:43:20.143Z,21.63
2023-04-09T10:45:53.206Z,21.77
2023-04-09T10:48:21.895Z,22.48
2023-04-09T10:50:51.224Z,19.55
2023-04-09T10:53:26.619Z,21.35
2023-04-09T10:55:54.095Z,20.63
2023-04-09T10:58:21.059Z,22.73
2023-04-09T11:00:49.360Z,19.10
2023-04-09T11:03:19.193Z,20.33
2023-04-09T11:05:49.964Z,20.52
2023-04-09T11:08:16.753Z,19.53
2023-04-09T11:10:45.168Z,19.48
2023-04-09T11:13:13.764Z,21.67
2023-04-09T11:15:40.902Z,22.95
2023-04-09T11:18:10.032Z,20.17
2023-04-09T11:20:36.652Z,21.47
2023-04-09T11:23:03.526Z,21.42
2023-04-09T11:25:34.290Z,20.70
2023-04-09T11:28:03.308Z,21.83
2023-04-09T11:30:31.071Z,21.95
2023-04-09T11:32:57.783Z,21.73
2023-04-09T11:35:25.085Z,21.27
2023-04-09T11:37:52.468Z,21.40
2023-04-09T11:40:21.488Z,20.98
2023-04-09T11:42:52.713Z,20.80
2023-04-09T11:45:21.185Z,21.43
2023-04-09T11:47:48.136Z,21.45
2023-04-09T11:50:16.697Z,20.65
2023-04-09T11:52:45.340Z,20.85
2023-04-09T11:55:12.506Z,22.08
2023-04-09T11:57:43.330Z,21.30
2023-04-09T12:00:15.129Z,20.90
2023-04-09T12:02:44.638Z,22.08
2023-04-09T12:05:14.257Z,21.80
2023-04-09T12:07:44.225Z,22.13
2023-04-09T12:10:18.654Z,22.53
2023-04-09T12:12:48.106Z,20.65
2023-04-09T12:15:23.256Z,20.70
2023-04-09T12:17:50.990Z,19.48
2023-04-09T12:20:45.319Z,18.45
2023-04-09T12:23:12.775Z,20.23
2023-04-09T12:25:41.397Z,19.15
2023-04-09T12:28:10.076Z,20.40
2023-04-09T12:30:36.679Z,20.65
2023-04-09T12:33:04.738Z,19.75
2023-04-09T12:35:31.961Z,21.40
2023-04-09T12:37:59.514Z,20.25
2023-04-09T12:40:26.717Z,19.25
2023-04-09T12:42:53.942Z,21.77
2023-04-09T12:45:21.402Z,18.13
2023-04-09T12:47:48.256Z,18.73
2023-04-09T12:50:16.357Z,18.88
2023-04-09T12:52:44.070Z,19.83
2023-04-09T12:55:11.864Z,19.95
2023-04-09T12:57:39.923Z,19.98
2023-04-09T13:00:07.831Z,19.67
2023-04-09T13:02:35.173Z,20.67
2023-04-09T13:05:02.329Z,19.60
2023-04-09T13:07:29.903Z,18.23
2023-04-09T13:09:57.542Z,18.60
2023-04-09T13:12:24.658Z,18.87
2023-04-09T13:14:54.120Z,18.80
2023-04-09T13:17:20.948Z,18.48
2023-04-09T13:19:47.671Z,18.30
2023-04-09T13:22:14.525Z,20.08
2023-04-09T13:24:41.167Z,19.13
2023-04-09T13:27:10.027Z,19.27
2023-04-09T13:29:36.872Z,18.70
2023-04-09T13:32:07.253Z,19.52
2023-04-09T13:34:35.051Z,19.08
2023-04-09T13:37:03.268Z,17.50
2023-04-09T13:39:29.938Z,18.90
2023-04-09T13:41:56.746Z,19.08
2023-04-09T13:44:27.332Z,16.33
2023-04-09T13:46:53.931Z,17.15
2023-04-09T13:49:21.081Z,16.83
2023-04-09T13:51:49.325Z,19.48
2023-04-09T13:54:16.289Z,18.75
2023-04-09T13:56:44.398Z,18.27
2023-04-09T14:01:46.332Z,18.10
2023-04-09T14:04:13.178Z,18.17
2023-04-09T14:06:42.607Z,17.80
2023-04-09T14:09:10.423Z,18.25
2023-04-09T14:11:37.041Z,18.13
2023-04-09T14:14:03.804Z,17.20
2023-04-09T14:16:31.027Z,16.88
2023-04-09T14:18:58.278Z,17.02
2023-04-09T14:21:24.868Z,16.85
2023-04-09T14:23:51.414Z,15.88
2023-04-09T14:26:18.961Z,15.73
2023-04-09T14:28:47.188Z,14.05
2023-04-09T14:31:16.526Z,14.88
2023-04-09T14:33:43.187Z,14.90
2023-04-09T14:36:10.310Z,13.43
2023-04-09T14:38:38.173Z,13.77
2023-04-09T14:41:05.036Z,12.95
2023-04-09T14:43:31.628Z,14.68
2023-04-09T14:45:58.333Z,13.57
2023-04-09T14:48:25.110Z,15.50
2023-04-09T14:50:51.689Z,14.53
2023-04-09T14:53:18.292Z,17.02
2023-04-09T14:55:44.966Z,16.70
2023-04-09T14:58:12.057Z,15.18
2023-04-09T15:00:39.061Z,15.80
2023-04-09T15:03:05.863Z,13.63
2023-04-09T15:05:32.538Z,13.30
2023-04-09T15:07:59.208Z,13.10
2023-04-09T15:10:26.019Z,14.45
2023-04-09T15:12:52.654Z,13.75
2023-04-09T15:15:19.228Z,13.73
2023-04-09T15:17:45.987Z,16.05
2023-04-09T15:20:14.035Z,13.75
2023-04-09T15:22:40.868Z,14.38
2023-04-09T15:25:07.675Z,14.55
2023-04-09T15:30:23.285Z,13.50
2023-04-09T15:32:53.054Z,15.00
2023-04-09T15:37:56.923Z,13.35
2023-04-09T15:45:59.305Z,14.43
2023-04-09T15:48:25.863Z,14.07
2023-04-09T15:50:52.756Z,14.60
2023-04-09T15:53:25.184Z,14.47
2023-04-09T15:58:28.889Z,13.05
2023-04-09T16:00:55.465Z,13.32
2023-04-09T16:03:22.189Z,13.48
2023-04-09T16:05:48.841Z,13.70
2023-04-09T16:11:18.496Z,13.43
2023-04-09T16:14:10.804Z,13.00
2023-04-09T16:16:32.703Z,12.52
2023-04-09T16:19:00.978Z,12.50
2023-04-09T16:21:28.228Z,14.68
2023-04-09T16:23:54.894Z,13.48
2023-04-09T16:26:21.745Z,12.38
2023-04-09T16:28:49.079Z,12.55
2023-04-09T16:31:16.034Z,12.97
2023-04-09T16:33:43.398Z,13.63
2023-04-09T16:49:58.385Z,11.13
2023-04-09T16:52:50.695Z,12.35
2023-04-09T17:03:49.221Z,10.80
2023-04-09T17:06:36.810Z,11.75
2023-04-09T17:09:05.384Z,11.32
2023-04-09T17:11:32.870Z,12.53
2023-04-09T17:13:59.670Z,12.23
2023-04-09T17:16:26.312Z,11.40
2023-04-09T17:18:53.307Z,11.98
2023-04-09T17:24:03.280Z,11.50
2023-04-09T17:26:29.934Z,11.35
2023-04-09T17:28:57.252Z,10.82
2023-04-09T17:31:24.498Z,12.07
2023-04-09T17:33:51.749Z,14.32
2023-04-09T17:36:22.710Z,12.33
2023-04-09T17:38:52.208Z,11.43
2023-04-09T17:41:19.085Z,16.58
2023-04-09T17:46:21.164Z,12.23
2023-04-09T17:48:48.170Z,12.30
2023-04-09T17:51:16.570Z,12.80
2023-04-09T17:53:43.344Z,11.10
2023-04-09T17:56:15.604Z,12.55
2023-04-09T18:01:23.949Z,11.90
2023-04-09T18:03:50.989Z,12.52
2023-04-09T18:06:17.955Z,13.35
2023-04-09T18:11:19.783Z,13.30
2023-04-09T18:13:46.591Z,13.30
2023-04-09T18:16:13.235Z,14.20
2023-04-09T18:18:40.291Z,12.85
2023-04-09T18:21:07.345Z,13.40
2023-04-09T18:23:33.961Z,14.55
2023-04-09T18:26:00.729Z,13.27
2023-04-09T18:28:28.313Z,13.98
2023-04-09T18:30:54.994Z,14.05
2023-04-09T18:33:21.752Z,13.10
2023-04-09T18:35:48.338Z,13.55
2023-04-09T18:38:14.896Z,15.90
2023-04-09T18:40:43.298Z,16.02
2023-04-09T18:43:12.482Z,13.68
2023-04-09T18:45:42.572Z,15.25
2023-04-09T18:48:09.227Z,15.35
2023-04-09T18:50:36.131Z,14.90
2023-04-09T18:53:03.713Z,14.90
2023-04-09T18:55:30.763Z,13.63
2023-04-09T18:57:57.559Z,14.00
2023-04-09T19:00:24.413Z,14.27
2023-04-09T19:02:51.172Z,13.27
2023-04-09T19:05:18.323Z,13.85
2023-04-09T19:07:44.878Z,14.80
2023-04-09T19:10:13.147Z,15.27
2023-04-09T19:12:46.706Z,15.02
2023-04-09T19:15:13.463Z,14.57
2023-04-09T19:17:40.375Z,15.48
2023-04-09T19:20:07.760Z,14.90
2023-04-09T19:22:34.354Z,16.75
2023-04-09T19:25:00.926Z,16.38
2023-04-09T19:27:27.784Z,15.67
2023-04-09T19:29:54.408Z,16.35
2023-04-09T19:32:21.298Z,15.93
2023-04-09T19:34:47.889Z,17.55
2023-04-09T19:37:15.317Z,17.25
2023-04-09T19:39:41.969Z,16.63
2023-04-09T19:42:08.585Z,16.75
2023-04-09T19:44:35.344Z,15.75
2023-04-09T19:47:01.941Z,15.82
2023-04-09T19:49:29.816Z,16.73
2023-04-09T19:51:56.940Z,14.97
2023-04-09T19:54:23.621Z,15.50
2023-04-09T19:56:50.369Z,13.93
2023-04-09T19:59:17.091Z,15.27
2023-04-09T20:01:43.771Z,16.60
2023-04-09T20:04:10.451Z,16.03
2023-04-09T20:06:37.061Z,16.63
2023-04-09T20:09:03.847Z,15.55
2023-04-09T20:11:30.564Z,17.38
2023-04-09T20:13:57.395Z,18.48
2023-04-09T20:16:24.038Z,17.17
2023-04-09T20:18:50.657Z,19.13
2023-04-09T20:21:17.395Z,19.13
2023-04-09T20:23:45.549Z,18.30
2023-04-09T20:26:13.648Z,19.02
2023-04-09T20:28:41.356Z,14.77
2023-04-09T20:31:08.266Z,15.75
2023-04-09T20:33:34.918Z,14.23
2023-04-09T20:36:01.986Z,14.23
2023-04-09T20:38:28.531Z,12.55
2023-04-09T20:40:55.044Z,12.80
2023-04-09T20:43:21.733Z,12.55
2023-04-09T20:45:48.277Z,11.43
2023-04-09T20:48:15.109Z,10.68
2023-04-09T20:50:42.189Z,11.07
2023-04-09T20:53:08.879Z,12.23
2023-04-09T20:55:35.776Z,11.65
2023-04-09T20:58:02.925Z,10.13
2023-04-09T21:00:29.866Z,10.20
2023-04-09T21:02:56.640Z,10.10
2023-04-09T21:05:24.394Z,10.07
2023-04-09T21:07:52.897Z,9.02
2023-04-09T21:10:19.875Z,9.27
2023-04-09T21:12:46.743Z,8.43
2023-04-09T21:15:13.326Z,9.05
2023-04-09T21:17:39.926Z,8.88
2023-04-09T21:20:07.104Z,8.38
2023-04-09T21:22:34.701Z,8.00
2023-04-09T21:25:03.114Z,8.32
2023-04-09T21:27:29.930Z,7.57
2023-04-09T21:29:57.406Z,7.32
2023-04-09T21:32:25.373Z,7.97
2023-04-09T21:34:52.167Z,7.50
2023-04-09T21:37:18.699Z,6.72
2023-04-09T21:39:45.440Z,7.05
2023-04-09T21:42:12.179Z,7.50
2023-04-09T21:44:39.012Z,7.78
2023-04-09T21:47:09.090Z,7.83
2023-04-09T21:49:40.651Z,7.03
2023-04-09T21:52:14.522Z,7.70
2023-04-09T21:54:42.548Z,7.32
2023-04-09T21:57:09.988Z,6.72
2023-04-09T21:59:36.738Z,6.47
2023-04-09T22:02:04.805Z,7.05
2023-04-09T22:04:31.597Z,7.07
2023-04-09T22:06:58.290Z,7.35
2023-04-09T22:09:24.971Z,6.50
2023-04-09T22:11:51.720Z,6.43
2023-04-09T22:14:19.272Z,7.30
2023-04-09T22:16:46.518Z,8.18
2023-04-09T22:19:14.210Z,7.30
2023-04-09T22:21:41.675Z,7.20
2023-04-09T22:24:08.563Z,7.07
2023-04-09T22:26:35.273Z,7.68
2023-04-09T22:29:03.892Z,8.18
2023-04-09T22:31:32.292Z,7.55
2023-04-09T22:34:10.064Z,6.93
2023-04-09T22:36:44.244Z,8.37
2023-04-09T22:39:10.982Z,7.95
2023-04-09T22:41:37.582Z,6.55
2023-04-09T22:44:04.673Z,7.00
2023-04-09T22:46:31.944Z,8.05
2023-04-09T22:49:04.430Z,8.40
2023-04-09T22:51:31.466Z,8.30
2023-04-09T22:53:57.992Z,7.65
2023-04-09T22:56:25.673Z,7.90
2023-04-09T22:58:52.661Z,8.85
2023-04-09T23:01:22.232Z,8.07
2023-04-09T23:03:49.900Z,7.45
2023-04-09T23:06:19.792Z,8.15
2023-04-09T23:08:46.787Z,7.95
2023-04-09T23:11:13.470Z,7.97
2023-04-09T23:13:40.085Z,8.13
2023-04-09T23:16:07.936Z,7.78
2023-04-09T23:18:35.455Z,8.27
2023-04-09T23:21:06.941Z,6.70
2023-04-09T23:23:34.388Z,7.55
2023-04-09T23:26:01.049Z,7.67
2023-04-09T23:28:28.300Z,7.63
2023-04-09T23:30:55.170Z,8.50
2023-04-09T23:33:21.803Z,7.35
2023-04-09T23:35:48.629Z,7.68
2023-04-09T23:38:16.058Z,7.70
2023-04-09T23:40:43.003Z,7.30
2023-04-09T23:43:09.638Z,7.60
2023-04-09T23:45:36.221Z,8.20
2023-04-09T23:48:03.857Z,7.75
2023-04-09T23:50:30.635Z,7.80
2023-04-09T23:53:03.433Z,7.80
2023-04-09T23:55:30.115Z,8.13
2023-04-09T23:57:56.911Z,8.13
